Time;durP1;ratioP1;P1;durP2;ratioP2;P2;SDS_P1;SDS_P2;PMS_P1;PMS_P2;Temp;Humidity;BMP_temperature;BMP_pressure;BME280_temperature;BME280_humidity;BME280_pressure;Samples;Min_cycle;Max_cycle;Signal;HPM_P1;HPM_P2
2023/12/25 00:00:28;;;;;;;1.77;1.13;;;;;;;8.79;100.00;153616.25;5006384;28;20453;-85
2023/12/25 00:02:56;;;;;;;1.80;0.83;;;;;;;8.84;100.00;153630.44;5026537;28;20456;-85
2023/12/25 00:05:22;;;;;;;1.90;1.27;;;;;;;8.82;100.00;153623.97;5009644;28;20456;-85
2023/12/25 00:07:49;;;;;;;1.03;0.80;;;;;;;8.78;100.00;153614.97;5026573;28;20449;-85
2023/12/25 00:10:15;;;;;;;1.33;0.83;;;;;;;8.81;100.00;153621.41;4992509;28;20807;-85
2023/12/25 00:12:42;;;;;;;1.60;1.30;;;;;;;8.86;100.00;153634.34;5007135;28;20936;-83
2023/12/25 00:15:10;;;;;;;1.40;1.00;;;;;;;8.85;100.00;153633.03;5007503;28;20461;-85
2023/12/25 00:17:36;;;;;;;1.57;1.03;;;;;;;8.85;100.00;153631.75;5007460;28;20452;-85
2023/12/25 00:20:05;;;;;;;1.70;0.90;;;;;;;8.87;100.00;153638.22;4986870;28;20459;-85
2023/12/25 00:22:32;;;;;;;1.13;0.63;;;;;;;8.87;100.00;153636.94;5000663;28;20468;-84
2023/12/25 00:24:57;;;;;;;2.10;0.90;;;;;;;8.83;100.00;153626.59;5013921;28;20453;-85
2023/12/25 00:27:24;;;;;;;1.33;0.60;;;;;;;8.83;100.00;153626.59;4990272;28;20821;-83
2023/12/25 00:29:51;;;;;;;1.70;0.97;;;;;;;8.84;100.00;153629.19;5014163;28;20233;-83
2023/12/25 00:32:17;;;;;;;1.10;0.60;;;;;;;8.87;100.00;153636.94;5023968;28;20449;-84
2023/12/25 00:34:44;;;;;;;1.40;0.87;;;;;;;8.89;100.00;153643.41;5025291;28;20465;-84
2023/12/25 00:37:12;;;;;;;2.80;0.93;;;;;;;8.83;100.00;153627.88;5010119;28;20451;-84
2023/12/25 00:39:38;;;;;;;1.50;0.77;;;;;;;8.81;100.00;153622.72;4996270;28;20475;-84
2023/12/25 00:42:05;;;;;;;1.40;0.83;;;;;;;8.82;100.00;153623.97;4988679;28;20543;-84
2023/12/25 00:44:32;;;;;;;1.43;0.70;;;;;;;8.83;100.00;153626.59;5006735;28;20693;-84
2023/12/25 00:46:59;;;;;;;1.83;0.90;;;;;;;8.86;100.00;153634.34;4996215;28;20448;-84
2023/12/25 00:49:26;;;;;;;1.47;0.77;;;;;;;8.82;100.00;153625.28;4998998;28;20467;-84
2023/12/25 00:51:52;;;;;;;1.60;0.77;;;;;;;8.78;100.00;153614.97;4983726;28;20488;-84
2023/12/25 00:54:21;;;;;;;1.23;0.83;;;;;;;8.77;100.00;153612.34;4999364;28;20457;-84
2023/12/25 00:56:48;;;;;;;1.30;0.80;;;;;;;8.74;100.00;153604.59;5006508;28;20480;-84
2023/12/25 00:59:14;;;;;;;0.97;0.67;;;;;;;8.73;100.00;153600.72;5013125;28;20460;-84
2023/12/25 01:01:41;;;;;;;1.37;0.73;;;;;;;8.74;100.00;153604.59;4986246;28;20460;-85
2023/12/25 01:04:07;;;;;;;1.10;0.70;;;;;;;8.78;100.00;153614.97;5021287;28;20882;-85
2023/12/25 01:06:34;;;;;;;1.20;0.80;;;;;;;8.81;100.00;153621.41;5026705;28;20447;-85
2023/12/25 01:09:00;;;;;;;1.40;0.83;;;;;;;8.78;100.00;153614.97;5015273;28;20448;-85
2023/12/25 01:11:28;;;;;;;1.10;0.70;;;;;;;8.74;100.00;153604.59;5020987;28;20487;-85
2023/12/25 01:13:55;;;;;;;1.20;0.70;;;;;;;8.75;100.00;153605.91;5018488;28;20455;-84
2023/12/25 01:16:23;;;;;;;1.40;0.70;;;;;;;8.75;100.00;153605.91;5009731;28;20959;-84
2023/12/25 01:18:51;;;;;;;1.17;0.53;;;;;;;8.75;100.00;153605.91;5007704;28;20986;-84
2023/12/25 01:21:17;;;;;;;1.30;0.70;;;;;;;8.73;100.00;153600.72;5019862;28;20471;-85
2023/12/25 01:23:44;;;;;;;1.30;0.70;;;;;;;8.74;98.72;153603.28;4996192;28;20476;-85
2023/12/25 01:26:11;;;;;;;1.30;0.80;;;;;;;8.79;100.00;153617.50;5015177;28;20463;-85
2023/12/25 01:28:39;;;;;;;1.60;1.00;;;;;;;8.78;100.00;153613.66;5016587;28;20452;-85
2023/12/25 01:31:06;;;;;;;1.20;0.60;;;;;;;8.76;98.65;153608.50;5019550;28;20525;-84
2023/12/25 01:33:33;;;;;;;1.33;0.90;;;;;;;8.77;98.39;153611.06;5028579;28;20460;-84
2023/12/25 01:36:00;;;;;;;2.20;1.00;;;;;;;8.75;100.00;153605.91;5015166;28;20463;-84
2023/12/25 01:38:26;;;;;;;1.30;0.80;;;;;;;8.75;98.90;153605.91;5026355;28;20464;-84
2023/12/25 01:40:53;;;;;;;1.33;0.80;;;;;;;8.72;98.27;153598.13;4991880;28;20444;-84
2023/12/25 01:43:19;;;;;;;0.93;0.60;;;;;;;8.72;98.19;153598.13;5017299;28;21048;-84
2023/12/25 01:45:47;;;;;;;1.70;0.70;;;;;;;8.70;98.06;153592.97;5007769;28;20465;-83
2023/12/25 01:48:14;;;;;;;1.20;0.63;;;;;;;8.75;97.74;153605.91;5037004;28;20497;-84
2023/12/25 01:50:41;;;;;;;1.60;0.73;;;;;;;8.70;98.42;153592.97;4994923;28;20474;-84
2023/12/25 01:53:07;;;;;;;1.80;1.20;;;;;;;8.70;96.96;153594.28;5004348;28;20861;-84
2023/12/25 01:55:35;;;;;;;1.60;0.80;;;;;;;8.72;98.28;153598.13;4993097;28;20455;-84
2023/12/25 01:58:01;;;;;;;1.40;0.70;;;;;;;8.69;97.87;153590.38;5011927;28;20455;-84
2023/12/25 02:00:28;;;;;;;1.27;0.80;;;;;;;8.69;99.02;153590.38;5005633;28;20524;-85
2023/12/25 02:02:56;;;;;;;1.00;0.70;;;;;;;8.71;95.08;153596.81;5003147;28;20523;-83
2023/12/25 02:05:22;;;;;;;1.20;0.67;;;;;;;8.73;96.95;153600.72;4974168;28;20444;-84
2023/12/25 02:07:49;;;;;;;1.00;0.60;;;;;;;8.68;94.89;153589.13;4990296;28;20456;-84
2023/12/25 02:10:26;;;;;;;1.20;0.70;;;;;;;8.66;96.11;153583.91;5002868;28;20514;-84
2023/12/25 02:12:52;;;;;;;1.33;0.77;;;;;;;8.64;97.27;153577.44;5005933;28;20448;-84
2023/12/25 02:15:19;;;;;;;1.10;0.70;;;;;;;8.62;95.67;153572.28;5005034;28;20503;-84
2023/12/25 02:17:45;;;;;;;1.20;0.57;;;;;;;8.61;97.12;153569.69;5004078;28;20462;-85
2023/12/25 02:20:14;;;;;;;1.30;0.80;;;;;;;8.60;95.88;153567.13;4993688;28;20479;-86
2023/12/25 02:22:41;;;;;;;1.20;0.80;;;;;;;8.57;96.88;153560.66;5006661;28;20451;-86
2023/12/25 02:25:10;;;;;;;2.03;1.00;;;;;;;8.57;95.95;153560.66;4982313;28;20541;-85
2023/12/25 02:27:38;;;;;;;1.27;0.60;;;;;;;8.56;97.70;153559.38;5006166;28;20453;-86
2023/12/25 02:30:06;;;;;;;1.40;0.90;;;;;;;8.54;96.66;153554.19;5006135;28;20547;-85
2023/12/25 02:32:33;;;;;;;1.80;0.80;;;;;;;8.53;97.47;153551.59;4968204;28;20819;-85
2023/12/25 02:34:59;;;;;;;1.30;0.67;;;;;;;8.49;97.84;153539.97;4990783;28;20456;-85
2023/12/25 02:37:26;;;;;;;1.57;0.77;;;;;;;8.45;96.75;153529.63;4989576;28;20461;-86
2023/12/25 02:39:52;;;;;;;1.30;0.60;;;;;;;8.43;95.30;153524.47;4983273;28;20979;-86
2023/12/25 02:42:19;;;;;;;1.50;1.00;;;;;;;8.43;96.03;153525.75;5000166;28;20441;-85
2023/12/25 02:44:47;;;;;;;0.97;0.50;;;;;;;8.49;95.45;153541.28;5010048;28;20535;-86
2023/12/25 02:47:13;;;;;;;1.20;0.80;;;;;;;8.46;96.49;153533.53;4994346;28;20495;-85
2023/12/25 02:49:40;;;;;;;1.70;0.70;;;;;;;8.46;95.68;153533.53;5009728;28;20464;-86
2023/12/25 02:52:06;;;;;;;2.57;0.90;;;;;;;8.50;95.59;153542.53;5008907;28;20547;-85
2023/12/25 02:54:33;;;;;;;2.50;0.70;;;;;;;8.47;95.73;153536.06;4992573;28;20537;-84
2023/12/25 02:57:00;;;;;;;1.53;0.70;;;;;;;8.45;96.89;153529.63;4984881;28;20555;-85
2023/12/25 02:59:26;;;;;;;1.40;0.70;;;;;;;8.46;95.24;153533.53;5008673;28;20456;-85
2023/12/25 03:01:54;;;;;;;1.20;0.83;;;;;;;8.49;93.87;153541.28;4997723;28;20445;-85
2023/12/25 03:04:21;;;;;;;1.40;0.80;;;;;;;8.53;94.34;153550.28;4990563;28;20847;-85
2023/12/25 03:06:47;;;;;;;1.10;0.60;;;;;;;8.51;94.77;153545.13;5004351;28;20508;-86
2023/12/25 03:09:14;;;;;;;1.63;0.90;;;;;;;8.48;94.43;153538.69;5008626;28;20453;-85
2023/12/25 03:11:40;;;;;;;1.20;0.63;;;;;;;8.43;94.03;153524.47;5007544;28;20488;-85
2023/12/25 03:14:07;;;;;;;1.87;0.77;;;;;;;8.43;92.80;153524.47;4995352;28;20493;-85
2023/12/25 03:16:34;;;;;;;1.33;0.87;;;;;;;8.44;93.32;153527.06;5006014;28;20808;-85
2023/12/25 03:19:01;;;;;;;1.07;0.53;;;;;;;8.42;95.28;153521.84;5012919;28;20468;-85
2023/12/25 03:21:28;;;;;;;1.00;0.60;;;;;;;8.37;94.56;153510.22;5011335;28;20465;-86
2023/12/25 03:23:55;;;;;;;1.00;0.70;;;;;;;8.36;93.71;153506.38;5010768;28;20459;-85
2023/12/25 03:26:22;;;;;;;1.60;0.80;;;;;;;8.42;92.04;153521.84;4985263;28;20457;-84
2023/12/25 03:28:48;;;;;;;1.10;0.80;;;;;;;8.38;93.09;153512.84;4999861;28;20832;-86
2023/12/25 03:31:15;;;;;;;1.37;0.70;;;;;;;8.35;94.49;153505.06;5017746;28;20480;-85
2023/12/25 03:33:41;;;;;;;1.20;0.97;;;;;;;8.34;93.13;153501.22;5017977;28;20452;-87
2023/12/25 03:36:09;;;;;;;1.40;0.80;;;;;;;8.33;93.78;153499.91;5000937;28;20460;-85
2023/12/25 03:38:36;;;;;;;1.80;0.97;;;;;;;8.34;93.18;153501.22;5000177;28;20458;-85
2023/12/25 03:41:02;;;;;;;1.73;0.80;;;;;;;8.33;94.41;153498.63;5023013;28;20483;-84
2023/12/25 03:43:29;;;;;;;1.70;0.97;;;;;;;8.29;95.17;153489.56;4993201;28;20468;-85
2023/12/25 03:45:57;;;;;;;1.10;0.60;;;;;;;8.27;92.77;153484.41;5010893;28;20457;-85
2023/12/25 03:48:23;;;;;;;1.63;0.80;;;;;;;8.25;93.36;153479.19;5003192;28;20458;-85
2023/12/25 03:50:50;;;;;;;2.23;0.80;;;;;;;8.24;91.83;153476.59;4998754;28;20457;-85
2023/12/25 03:53:18;;;;;;;1.53;0.80;;;;;;;8.31;93.43;153494.72;5005305;28;20464;-84
2023/12/25 03:55:44;;;;;;;1.03;0.60;;;;;;;8.27;92.62;153483.09;5008025;28;20484;-85
2023/12/25 03:58:11;;;;;;;1.50;0.80;;;;;;;8.25;94.65;153479.19;5012609;28;20486;-85
2023/12/25 04:00:38;;;;;;;1.20;0.60;;;;;;;8.24;92.63;153476.59;5005953;28;20475;-83
2023/12/25 04:03:05;;;;;;;1.20;0.80;;;;;;;8.28;91.43;153487.00;5008694;28;20995;-84
2023/12/25 04:05:32;;;;;;;1.20;0.80;;;;;;;8.28;93.50;153487.00;5003579;28;20468;-84
2023/12/25 04:07:59;;;;;;;0.87;0.53;;;;;;;8.27;92.53;153484.41;4998443;28;20456;-85
2023/12/25 04:10:27;;;;;;;1.43;0.80;;;;;;;8.26;92.95;153480.50;4994273;28;20444;-84
2023/12/25 04:12:53;;;;;;;1.40;0.53;;;;;;;8.24;94.85;153475.28;5011448;28;20480;-84
2023/12/25 04:15:20;;;;;;;1.47;0.70;;;;;;;8.19;94.16;153463.66;5021401;28;20467;-85
2023/12/25 04:17:47;;;;;;;1.70;1.00;;;;;;;8.19;92.88;153462.38;5004013;28;20881;-85
2023/12/25 04:20:13;;;;;;;1.30;0.80;;;;;;;8.19;93.29;153463.66;5009934;28;20482;-84
2023/12/25 04:22:40;;;;;;;1.00;0.63;;;;;;;8.18;93.51;153461.06;4996719;28;20492;-85
2023/12/25 04:25:07;;;;;;;0.97;0.63;;;;;;;8.16;94.32;153455.91;4997491;28;20484;-84
2023/12/25 04:27:35;;;;;;;2.10;0.60;;;;;;;8.16;95.27;153455.91;4986903;28;20576;-84
2023/12/25 04:30:02;;;;;;;1.40;0.70;;;;;;;8.15;93.83;153453.34;5011787;28;20550;-85
2023/12/25 04:32:29;;;;;;;1.40;0.67;;;;;;;8.15;91.60;153453.34;5009603;28;20463;-85
2023/12/25 04:34:56;;;;;;;1.30;0.80;;;;;;;8.19;92.08;153462.38;5001932;28;20459;-84
2023/12/25 04:37:22;;;;;;;1.37;0.73;;;;;;;8.17;92.93;153457.19;4988296;28;21202;-85
2023/12/25 04:39:49;;;;;;;1.30;0.70;;;;;;;8.16;92.66;153455.91;4993406;28;20467;-86
2023/12/25 04:42:16;;;;;;;1.60;0.83;;;;;;;8.14;94.27;153450.75;4990927;28;20480;-85
2023/12/25 04:44:44;;;;;;;2.60;0.70;;;;;;;8.10;92.20;153440.38;4990347;28;20563;-85
2023/12/25 04:47:10;;;;;;;1.20;0.77;;;;;;;8.11;94.98;153443.00;5004848;28;20552;-85
2023/12/25 04:49:38;;;;;;;1.27;0.80;;;;;;;8.06;96.04;153430.06;4994183;28;20468;-85
2023/12/25 04:52:05;;;;;;;2.23;0.87;;;;;;;8.05;93.72;153426.22;5009837;28;20846;-85
2023/12/25 04:54:31;;;;;;;1.20;0.70;;;;;;;8.05;94.45;153427.47;4984567;28;20624;-84
2023/12/25 04:56:58;;;;;;;1.10;0.80;;;;;;;8.02;93.92;153418.44;5012809;28;20459;-84
2023/12/25 04:59:25;;;;;;;1.20;0.60;;;;;;;8.03;92.67;153422.31;4991171;28;20452;-84
2023/12/25 05:01:54;;;;;;;1.30;0.73;;;;;;;8.06;93.67;153428.75;4980850;28;20481;-84
2023/12/25 05:04:21;;;;;;;1.10;0.73;;;;;;;8.03;92.23;153422.31;5003176;28;20849;-84
2023/12/25 05:06:48;;;;;;;1.30;0.83;;;;;;;8.02;92.36;153419.75;4989693;28;20449;-84
2023/12/25 05:09:14;;;;;;;1.10;0.50;;;;;;;7.99;90.27;153413.25;4990764;28;20550;-84
2023/12/25 05:11:41;;;;;;;1.37;0.90;;;;;;;8.02;92.17;153418.44;5003732;28;20899;-84
2023/12/25 05:14:07;;;;;;;1.30;0.70;;;;;;;8.01;94.81;153417.16;5000936;28;20523;-84
2023/12/25 05:16:34;;;;;;;2.03;0.57;;;;;;;8.01;91.75;153417.16;5010473;28;20793;-84
2023/12/25 05:19:02;;;;;;;1.53;0.80;;;;;;;8.02;92.41;153418.44;4975854;28;20803;-85
2023/12/25 05:21:29;;;;;;;2.57;0.80;;;;;;;7.98;92.99;153410.69;4972525;28;20456;-84
2023/12/25 05:23:56;;;;;;;2.03;0.80;;;;;;;7.98;92.11;153409.41;5009617;28;20530;-85
2023/12/25 05:26:23;;;;;;;1.37;0.70;;;;;;;7.99;90.13;153412.00;5004593;28;20972;-84
2023/12/25 05:28:49;;;;;;;1.30;0.60;;;;;;;8.00;92.03;153414.53;4997753;28;20462;-84
2023/12/25 05:31:16;;;;;;;1.17;0.70;;;;;;;7.96;92.51;153404.22;5007640;28;20559;-84
2023/12/25 05:33:42;;;;;;;1.00;0.60;;;;;;;7.92;93.81;153393.88;5002839;28;20437;-84
2023/12/25 05:36:10;;;;;;;1.10;0.70;;;;;;;7.89;91.62;153386.13;5003187;28;20464;-85
2023/12/25 05:38:37;;;;;;;3.03;1.00;;;;;;;7.92;93.92;153393.88;5007832;28;20536;-84
2023/12/25 05:41:04;;;;;;;1.87;1.07;;;;;;;7.89;95.69;153386.13;4989784;28;20512;-84
2023/12/25 05:43:31;;;;;;;1.67;0.70;;;;;;;7.86;96.67;153378.41;4989772;28;20453;-85
2023/12/25 05:45:57;;;;;;;2.47;0.70;;;;;;;7.83;95.70;153370.66;5004648;28;20504;-84
2023/12/25 05:48:24;;;;;;;1.30;0.70;;;;;;;7.85;95.03;153375.81;4976115;28;20473;-84
2023/12/25 05:50:50;;;;;;;1.93;0.90;;;;;;;7.86;93.39;153378.41;4975914;28;20465;-84
2023/12/25 05:53:18;;;;;;;1.00;0.50;;;;;;;7.87;93.62;153380.97;5002967;28;20476;-84
2023/12/25 05:55:45;;;;;;;1.00;0.70;;;;;;;7.84;94.04;153373.19;5007324;28;20464;-84
2023/12/25 05:58:11;;;;;;;2.07;0.80;;;;;;;7.85;92.06;153375.81;5010035;28;20444;-84
2023/12/25 06:00:38;;;;;;;1.57;0.70;;;;;;;7.85;95.59;153377.09;5006712;28;20472;-84
2023/12/25 06:03:05;;;;;;;1.00;0.60;;;;;;;7.80;97.22;153362.88;4987134;28;20807;-84
2023/12/25 06:05:32;;;;;;;3.00;1.10;;;;;;;7.79;98.10;153360.28;4998941;28;20491;-84
2023/12/25 06:07:58;;;;;;;1.80;1.30;;;;;;;7.76;95.67;153352.53;4994013;28;20757;-84
2023/12/25 06:10:26;;;;;;;1.27;0.80;;;;;;;7.75;96.38;153351.28;4998420;28;20469;-84
2023/12/25 06:12:53;;;;;;;1.17;0.70;;;;;;;7.73;97.52;153344.81;4994637;28;20999;-84
2023/12/25 06:15:19;;;;;;;1.10;0.70;;;;;;;7.73;98.16;153346.06;4997550;28;20459;-84
2023/12/25 06:17:46;;;;;;;1.87;1.00;;;;;;;7.70;95.92;153338.38;4974377;28;21306;-84
2023/12/25 06:20:12;;;;;;;1.10;0.70;;;;;;;7.76;94.25;153352.53;4996215;28;20483;-85
2023/12/25 06:22:39;;;;;;;1.87;0.80;;;;;;;7.77;96.10;153355.13;4997341;28;20452;-84
2023/12/25 06:25:06;;;;;;;1.10;0.80;;;;;;;7.75;97.67;153349.97;4996109;28;20475;-84
2023/12/25 06:27:34;;;;;;;1.60;1.00;;;;;;;7.72;97.62;153342.22;4991500;28;20465;-85
2023/12/25 06:30:01;;;;;;;1.10;0.60;;;;;;;7.72;97.42;153343.53;4974696;28;20467;-85
2023/12/25 06:32:27;;;;;;;1.47;0.90;;;;;;;7.71;95.54;153339.63;4995033;28;20542;-85
2023/12/25 06:34:54;;;;;;;1.43;0.90;;;;;;;7.74;95.67;153347.38;4996089;28;20948;-85
2023/12/25 06:37:20;;;;;;;1.30;0.70;;;;;;;7.73;98.21;153344.81;4996032;28;20457;-85
2023/12/25 06:39:47;;;;;;;1.70;0.90;;;;;;;7.69;98.31;153334.47;4998804;28;20460;-84
2023/12/25 06:42:14;;;;;;;1.17;0.70;;;;;;;7.69;97.03;153334.47;4995409;28;20448;-85
2023/12/25 06:44:41;;;;;;;2.03;0.73;;;;;;;7.67;97.28;153329.31;4998832;28;20454;-85
2023/12/25 06:47:08;;;;;;;1.00;0.70;;;;;;;7.66;99.45;153328.00;4996313;28;20507;-84
2023/12/25 06:49:35;;;;;;;1.50;0.87;;;;;;;7.64;97.15;153321.56;4997957;28;20507;-83
2023/12/25 06:52:01;;;;;;;1.50;0.90;;;;;;;7.67;96.88;153329.31;4981938;28;20477;-84
2023/12/25 06:54:28;;;;;;;1.27;0.73;;;;;;;7.66;96.72;153328.00;4994932;28;20467;-84
2023/12/25 06:56:54;;;;;;;1.10;0.60;;;;;;;7.67;99.52;153329.31;4999642;28;20803;-85
2023/12/25 06:59:21;;;;;;;1.60;0.90;;;;;;;7.62;98.42;153316.41;4996494;28;21141;-85
2023/12/25 07:01:49;;;;;;;1.33;0.70;;;;;;;7.61;97.75;153315.09;4977702;28;20863;-84
2023/12/25 07:04:15;;;;;;;1.87;0.90;;;;;;;7.62;98.06;153316.41;5020085;28;20480;-83
2023/12/25 07:06:42;;;;;;;1.30;0.67;;;;;;;7.58;98.00;153307.34;5005367;28;20594;-85
2023/12/25 07:09:10;;;;;;;1.43;0.90;;;;;;;7.56;97.61;153302.19;5004785;28;20979;-84
2023/12/25 07:11:36;;;;;;;1.40;0.80;;;;;;;7.58;98.19;153306.03;5018392;28;20468;-84
2023/12/25 07:14:03;;;;;;;2.57;1.03;;;;;;;7.55;97.10;153298.28;5020078;28;20447;-84
2023/12/25 07:16:30;;;;;;;1.20;0.90;;;;;;;7.55;96.05;153298.28;5012738;28;20570;-86
2023/12/25 07:18:58;;;;;;;1.60;1.00;;;;;;;7.55;95.45;153299.59;5002456;28;20459;-85
2023/12/25 07:21:24;;;;;;;1.50;0.90;;;;;;;7.58;96.40;153306.03;5018335;28;20456;-85
2023/12/25 07:23:52;;;;;;;1.30;0.90;;;;;;;7.56;94.58;153302.19;5019336;28;20460;-85
2023/12/25 07:26:19;;;;;;;1.60;0.80;;;;;;;7.58;94.48;153306.03;4999194;28;20448;-85
2023/12/25 07:28:46;;;;;;;2.20;0.80;;;;;;;7.60;97.10;153311.25;5017175;28;22184;-86
2023/12/25 07:31:12;;;;;;;2.60;0.80;;;;;;;7.58;97.69;153306.03;5003751;28;20468;-85
2023/12/25 07:33:39;;;;;;;1.40;0.90;;;;;;;7.58;94.57;153306.03;5019057;28;20476;-86
2023/12/25 07:36:07;;;;;;;1.40;0.80;;;;;;;7.57;94.21;153303.47;5026479;28;20813;-85
2023/12/25 07:38:34;;;;;;;1.50;1.20;;;;;;;7.60;94.36;153311.25;5025505;28;20454;-85
2023/12/25 07:41:01;;;;;;;1.90;1.13;;;;;;;7.59;95.04;153309.94;5002511;28;21410;-85
2023/12/25 07:43:31;;;;;;;1.37;0.70;;;;;;;7.62;93.48;153317.69;5013984;28;20459;-85
2023/12/25 07:45:58;;;;;;;1.50;0.93;;;;;;;7.64;95.00;153321.56;4997191;28;20452;-85
2023/12/25 07:48:24;;;;;;;0.90;0.57;;;;;;;7.65;94.68;153325.41;5018425;28;20448;-85
2023/12/25 07:50:51;;;;;;;1.60;1.00;;;;;;;7.66;95.73;153326.72;5019275;28;20468;-85
2023/12/25 07:53:19;;;;;;;1.37;0.93;;;;;;;7.70;96.49;153337.06;5014261;28;20594;-85
2023/12/25 07:55:45;;;;;;;2.63;1.10;;;;;;;7.69;98.53;153334.47;5013716;28;20456;-84
2023/12/25 07:58:13;;;;;;;1.60;1.00;;;;;;;7.67;98.39;153330.59;5021928;28;20448;-85
2023/12/25 08:00:42;;;;;;;2.10;1.23;;;;;;;7.66;98.36;153326.72;5017798;28;20471;-85
2023/12/25 08:03:09;;;;;;;1.40;0.90;;;;;;;7.69;97.91;153335.75;5000121;28;20471;-85
2023/12/25 08:05:35;;;;;;;1.30;0.80;;;;;;;7.72;98.52;153343.53;4998021;28;20467;-85
2023/12/25 08:08:02;;;;;;;1.30;0.90;;;;;;;7.72;98.59;153342.22;5020453;28;20481;-85
2023/12/25 08:10:30;;;;;;;1.30;0.93;;;;;;;7.75;97.05;153349.97;5018124;28;20460;-85
2023/12/25 08:12:58;;;;;;;1.60;1.07;;;;;;;7.77;98.10;153355.13;4989227;28;20472;-85
2023/12/25 08:15:25;;;;;;;1.60;1.20;;;;;;;7.78;99.56;153357.72;5000468;28;21049;-85
2023/12/25 08:17:52;;;;;;;2.03;1.10;;;;;;;7.77;97.24;153355.13;5017201;28;20452;-85
2023/12/25 08:20:19;;;;;;;1.53;0.90;;;;;;;7.82;96.65;153368.03;5002459;28;21208;-85
2023/12/25 08:22:45;;;;;;;1.27;0.77;;;;;;;7.86;98.97;153378.41;4999254;28;21001;-85
2023/12/25 08:25:12;;;;;;;1.17;0.80;;;;;;;7.83;98.58;153371.94;4995487;28;20467;-85
2023/12/25 08:27:40;;;;;;;1.70;1.10;;;;;;;7.85;95.10;153375.81;5017732;28;20833;-85
2023/12/25 08:30:07;;;;;;;1.67;1.03;;;;;;;7.90;95.95;153388.72;5015867;28;20464;-84
2023/12/25 08:32:34;;;;;;;1.77;0.90;;;;;;;7.93;98.18;153396.47;5013947;28;20574;-88
2023/12/25 08:35:00;;;;;;;1.50;0.90;;;;;;;7.93;98.19;153396.47;5015686;28;20471;-85
2023/12/25 08:37:27;;;;;;;2.10;1.00;;;;;;;7.95;97.82;153401.63;4991648;28;20461;-85
2023/12/25 08:39:53;;;;;;;1.47;1.00;;;;;;;8.00;95.94;153414.53;5006177;28;20874;-85
2023/12/25 08:42:20;;;;;;;1.70;1.10;;;;;;;8.02;96.91;153418.44;5001329;28;20801;-86
2023/12/25 08:44:48;;;;;;;1.60;1.03;;;;;;;8.04;96.06;153423.63;5013400;28;20459;-85
2023/12/25 08:47:14;;;;;;;1.33;0.87;;;;;;;8.08;97.49;153433.94;5010959;28;20525;-84
2023/12/25 08:49:41;;;;;;;1.93;0.80;;;;;;;8.10;96.69;153440.38;5016100;28;20934;-84
2023/12/25 08:52:08;;;;;;;1.67;0.93;;;;;;;8.15;96.59;153453.34;5019887;28;20459;-85
2023/12/25 08:54:34;;;;;;;2.20;0.93;;;;;;;8.20;96.61;153464.97;5016007;28;20483;-82
2023/12/25 08:57:01;;;;;;;1.80;1.07;;;;;;;8.23;96.63;153474.03;4997463;28;21002;-84
2023/12/25 08:59:27;;;;;;;4.13;0.80;;;;;;;8.26;95.79;153481.75;5011294;28;21016;-85
2023/12/25 09:01:55;;;;;;;1.50;1.10;;;;;;;8.35;97.53;153505.06;5010707;28;20452;-86
2023/12/25 09:04:21;;;;;;;1.60;1.30;;;;;;;8.41;94.89;153519.28;4999595;28;20479;-84
2023/12/25 09:06:48;;;;;;;2.03;1.03;;;;;;;8.49;94.85;153541.28;5013886;28;20464;-84
2023/12/25 09:09:14;;;;;;;1.20;0.80;;;;;;;8.56;95.52;153559.38;5017833;28;20506;-84
2023/12/25 09:11:41;;;;;;;2.27;1.10;;;;;;;8.61;94.70;153569.69;5013461;28;21405;-84
2023/12/25 09:14:08;;;;;;;1.40;1.00;;;;;;;8.64;94.02;153577.44;5016533;28;20542;-84
2023/12/25 09:16:35;;;;;;;2.90;0.90;;;;;;;8.63;94.84;153576.13;5010808;28;20452;-84
2023/12/25 09:19:03;;;;;;;1.30;0.97;;;;;;;8.62;94.90;153572.28;5019801;28;20451;-84
2023/12/25 09:21:29;;;;;;;1.80;1.30;;;;;;;8.63;95.83;153576.13;5016579;28;20575;-85
2023/12/25 09:23:56;;;;;;;1.53;0.97;;;;;;;8.62;98.28;153573.59;5018707;28;20448;-84
2023/12/25 09:26:22;;;;;;;2.33;1.17;;;;;;;8.61;95.88;153569.69;4997524;28;21031;-84
2023/12/25 09:28:50;;;;;;;1.40;1.00;;;;;;;8.69;95.74;153590.38;5019745;28;21930;-85
2023/12/25 09:31:17;;;;;;;1.50;0.90;;;;;;;8.74;94.77;153603.28;4999251;28;20449;-85
2023/12/25 09:33:50;;;;;;;1.53;1.20;;;;;;;8.75;95.88;153605.91;5010903;28;20563;-84
2023/12/25 09:36:18;;;;;;;1.37;0.77;;;;;;;8.79;95.39;153616.25;5013085;28;20961;-84
2023/12/25 09:38:44;;;;;;;6.40;1.30;;;;;;;8.84;96.10;153629.19;5014807;28;20521;-85
2023/12/25 09:41:11;;;;;;;1.30;0.90;;;;;;;8.85;96.53;153633.03;5013593;28;20459;-84
2023/12/25 09:43:38;;;;;;;1.20;0.73;;;;;;;8.89;95.45;153642.13;5016930;28;20456;-84
2023/12/25 09:46:05;;;;;;;1.10;0.70;;;;;;;8.95;95.83;153657.59;5007649;28;20831;-84
2023/12/25 09:48:32;;;;;;;1.30;0.70;;;;;;;8.99;95.75;153667.97;5015605;28;21027;-84
2023/12/25 09:50:59;;;;;;;1.30;0.80;;;;;;;9.01;93.89;153674.44;5016337;28;20467;-85
2023/12/25 09:53:27;;;;;;;1.27;0.80;;;;;;;9.04;95.17;153680.88;5014252;28;20484;-85
2023/12/25 09:55:54;;;;;;;1.50;1.00;;;;;;;9.04;97.77;153682.19;5010846;28;20455;-85
2023/12/25 09:58:23;;;;;;;1.50;1.03;;;;;;;9.04;98.76;153680.88;5016618;28;20459;-84
2023/12/25 10:00:50;;;;;;;1.40;0.80;;;;;;;9.08;97.82;153691.25;5015816;28;20503;-85
2023/12/25 10:03:20;;;;;;;1.60;0.63;;;;;;;9.10;97.49;153696.41;4993599;28;20492;-85
2023/12/25 10:05:47;;;;;;;1.17;0.93;;;;;;;9.15;98.25;153709.34;4969069;28;20484;-85
2023/12/25 10:08:13;;;;;;;1.37;0.83;;;;;;;9.17;99.83;153714.50;4979617;28;20520;-84
2023/12/25 10:10:43;;;;;;;1.40;0.87;;;;;;;9.18;100.00;153717.13;4997383;28;20481;-85
2023/12/25 10:13:12;;;;;;;3.47;0.90;;;;;;;9.19;99.52;153720.97;4975358;28;20547;-84
2023/12/25 10:15:39;;;;;;;1.20;0.73;;;;;;;9.17;100.00;153715.81;4993443;28;20463;-85
2023/12/25 10:18:09;;;;;;;1.37;0.70;;;;;;;9.18;100.00;153717.13;4995872;28;20453;-86
2023/12/25 10:20:36;;;;;;;1.87;0.83;;;;;;;9.21;100.00;153723.59;4998053;28;20468;-85
2023/12/25 10:23:10;;;;;;;1.00;0.60;;;;;;;9.23;100.00;153730.03;4977400;28;20472;-85
2023/12/25 10:25:44;;;;;;;1.50;0.87;;;;;;;9.26;100.00;153737.81;4994018;28;20464;-84
2023/12/25 10:28:11;;;;;;;2.10;0.90;;;;;;;9.32;100.00;153752.03;4984336;28;20464;-85
2023/12/25 10:30:38;;;;;;;1.43;0.80;;;;;;;9.34;100.00;153758.50;4994416;28;20556;-84
2023/12/25 10:33:10;;;;;;;1.00;0.63;;;;;;;9.35;100.00;153759.75;4996156;28;20472;-84
2023/12/25 10:35:38;;;;;;;2.50;1.00;;;;;;;9.37;100.00;153766.22;4973317;28;21211;-83
2023/12/25 10:38:05;;;;;;;1.27;0.70;;;;;;;9.39;100.00;153770.13;4998366;28;20464;-84
2023/12/25 10:40:32;;;;;;;0.90;0.60;;;;;;;9.44;100.00;153783.06;4981084;28;20859;-83
2023/12/25 10:43:00;;;;;;;1.00;0.67;;;;;;;9.43;100.00;153781.75;4978751;28;20453;-84
2023/12/25 10:45:28;;;;;;;1.17;0.70;;;;;;;9.46;100.00;153789.53;4992440;28;20460;-83
2023/12/25 10:47:56;;;;;;;1.53;0.90;;;;;;;9.49;100.00;153796.00;4998752;28;20456;-76
2023/12/25 10:50:25;;;;;;;1.17;0.60;;;;;;;9.54;100.00;153810.25;4994667;28;20507;-76
2023/12/25 10:52:53;;;;;;;0.90;0.60;;;;;;;9.58;100.00;153820.56;4995477;28;20496;-76
2023/12/25 10:55:24;;;;;;;1.77;1.20;;;;;;;9.60;100.00;153824.47;4993909;28;20554;-84
2023/12/25 10:57:51;;;;;;;0.97;0.67;;;;;;;9.67;100.00;153843.88;4995784;28;20844;-84
2023/12/25 11:00:21;;;;;;;1.60;0.63;;;;;;;9.71;100.00;153854.25;4996878;28;20467;-84
2023/12/25 11:02:50;;;;;;;1.20;0.83;;;;;;;9.77;100.00;153869.75;4995294;28;20470;-85
2023/12/25 11:05:17;;;;;;;1.10;0.60;;;;;;;9.89;100.00;153898.22;4995028;28;20782;-84
2023/12/25 11:07:43;;;;;;;1.40;0.60;;;;;;;9.90;100.00;153902.06;4992653;28;20818;-84
2023/12/25 11:10:11;;;;;;;2.03;0.90;;;;;;;9.92;100.00;153907.28;4995063;28;20490;-75
2023/12/25 11:12:38;;;;;;;1.00;0.77;;;;;;;9.97;100.00;153920.22;4996896;28;20471;-76
2023/12/25 11:15:05;;;;;;;1.67;0.90;;;;;;;10.00;100.00;153926.69;4991815;28;20472;-76
2023/12/25 11:17:34;;;;;;;1.30;0.80;;;;;;;10.04;100.00;153937.03;4993235;28;20464;-76
2023/12/25 11:20:10;;;;;;;1.00;0.60;;;;;;;10.09;100.00;153951.25;4992605;28;20503;-76
2023/12/25 11:22:36;;;;;;;1.83;0.57;;;;;;;10.13;100.00;153960.41;4989591;28;20464;-75
2023/12/25 11:25:04;;;;;;;1.67;0.80;;;;;;;10.17;100.00;153970.72;4996285;28;21054;-76
2023/12/25 11:27:30;;;;;;;3.40;0.90;;;;;;;10.21;100.00;153981.09;4975033;28;20485;-75
2023/12/25 11:30:01;;;;;;;1.33;0.80;;;;;;;10.20;100.00;153978.50;4993532;28;20817;-76